sensor_id;sensor_type;location;lat;lon;timestamp;P1;durP1;ratioP1;P2;durP2;ratioP2
18445;SDS011;9352;50.888;4.466;2022-09-09T00:01:54;4.80;;;3.08;;
18445;SDS011;9352;50.888;4.466;2022-09-09T00:04:28;14.38;;;3.15;;
18445;SDS011;9352;50.888;4.466;2022-09-09T00:06:59;8.45;;;2.80;;
18445;SDS011;9352;50.888;4.466;2022-09-09T00:09:32;12.90;;;2.90;;
18445;SDS011;9352;50.888;4.466;2022-09-09T00:12:09;7.43;;;2.80;;
18445;SDS011;9352;50.888;4.466;2022-09-09T00:14:45;6.32;;;3.15;;
18445;SDS011;9352;50.888;4.466;2022-09-09T00:17:20;9.50;;;2.65;;
18445;SDS011;9352;50.888;4.466;2022-09-09T00:19:59;8.57;;;3.20;;
18445;SDS011;9352;50.888;4.466;2022-09-09T00:22:32;13.20;;;3.05;;
18445;SDS011;9352;50.888;4.466;2022-09-09T00:25:04;6.78;;;2.53;;
18445;SDS011;9352;50.888;4.466;2022-09-09T00:27:39;7.00;;;2.85;;
18445;SDS011;9352;50.888;4.466;2022-09-09T00:30:14;6.82;;;2.85;;
18445;SDS011;9352;50.888;4.466;2022-09-09T00:32:45;8.07;;;2.50;;
18445;SDS011;9352;50.888;4.466;2022-09-09T00:35:14;8.20;;;2.58;;
18445;SDS011;9352;50.888;4.466;2022-09-09T00:37:44;3.38;;;2.53;;
18445;SDS011;9352;50.888;4.466;2022-09-09T00:40:18;6.88;;;2.67;;
18445;SDS011;9352;50.888;4.466;2022-09-09T00:42:52;5.43;;;2.38;;
18445;SDS011;9352;50.888;4.466;2022-09-09T00:45:39;8.23;;;2.78;;
18445;SDS011;9352;50.888;4.466;2022-09-09T00:48:18;13.18;;;2.45;;
18445;SDS011;9352;50.888;4.466;2022-09-09T00:50:49;5.07;;;2.33;;
18445;SDS011;9352;50.888;4.466;2022-09-09T00:53:23;7.25;;;2.50;;
18445;SDS011;9352;50.888;4.466;2022-09-09T00:56:01;10.77;;;2.53;;
18445;SDS011;9352;50.888;4.466;2022-09-09T00:58:35;9.88;;;2.53;;
18445;SDS011;9352;50.888;4.466;2022-09-09T01:01:03;7.63;;;2.60;;
18445;SDS011;9352;50.888;4.466;2022-09-09T01:03:35;11.95;;;2.80;;
18445;SDS011;9352;50.888;4.466;2022-09-09T01:06:15;7.65;;;2.90;;
18445;SDS011;9352;50.888;4.466;2022-09-09T01:08:50;9.35;;;2.78;;
18445;SDS011;9352;50.888;4.466;2022-09-09T01:11:36;11.05;;;2.72;;
18445;SDS011;9352;50.888;4.466;2022-09-09T01:14:13;9.88;;;2.90;;
18445;SDS011;9352;50.888;4.466;2022-09-09T01:16:46;5.10;;;2.53;;
18445;SDS011;9352;50.888;4.466;2022-09-09T01:19:15;9.55;;;2.60;;
18445;SDS011;9352;50.888;4.466;2022-09-09T01:21:53;11.05;;;2.70;;
18445;SDS011;9352;50.888;4.466;2022-09-09T01:24:25;8.52;;;2.70;;
18445;SDS011;9352;50.888;4.466;2022-09-09T01:26:58;11.35;;;2.45;;
18445;SDS011;9352;50.888;4.466;2022-09-09T01:29:27;9.90;;;2.60;;
18445;SDS011;9352;50.888;4.466;2022-09-09T01:31:55;7.47;;;2.80;;
18445;SDS011;9352;50.888;4.466;2022-09-09T01:34:25;12.48;;;2.60;;
18445;SDS011;9352;50.888;4.466;2022-09-09T01:36:57;5.38;;;2.65;;
18445;SDS011;9352;50.888;4.466;2022-09-09T01:39:27;4.68;;;2.30;;
18445;SDS011;9352;50.888;4.466;2022-09-09T01:41:53;8.90;;;3.00;;
18445;SDS011;9352;50.888;4.466;2022-09-09T01:44:23;15.43;;;2.92;;
18445;SDS011;9352;50.888;4.466;2022-09-09T01:46:51;15.07;;;3.15;;
18445;SDS011;9352;50.888;4.466;2022-09-09T01:49:18;11.38;;;2.70;;
18445;SDS011;9352;50.888;4.466;2022-09-09T01:51:46;8.75;;;2.83;;
18445;SDS011;9352;50.888;4.466;2022-09-09T01:54:16;8.80;;;3.05;;
18445;SDS011;9352;50.888;4.466;2022-09-09T01:56:47;9.32;;;2.92;;
18445;SDS011;9352;50.888;4.466;2022-09-09T01:59:28;13.63;;;3.03;;
18445;SDS011;9352;50.888;4.466;2022-09-09T02:02:11;9.50;;;2.80;;
18445;SDS011;9352;50.888;4.466;2022-09-09T02:04:44;11.95;;;2.92;;
18445;SDS011;9352;50.888;4.466;2022-09-09T02:07:18;9.45;;;2.60;;
18445;SDS011;9352;50.888;4.466;2022-09-09T02:09:56;10.90;;;2.65;;
18445;SDS011;9352;50.888;4.466;2022-09-09T02:12:27;11.65;;;2.78;;
18445;SDS011;9352;50.888;4.466;2022-09-09T02:14:59;10.73;;;3.25;;
18445;SDS011;9352;50.888;4.466;2022-09-09T02:17:30;11.50;;;2.92;;
18445;SDS011;9352;50.888;4.466;2022-09-09T02:20:03;8.35;;;2.97;;
18445;SDS011;9352;50.888;4.466;2022-09-09T02:22:33;9.45;;;3.22;;
18445;SDS011;9352;50.888;4.466;2022-09-09T02:25:05;13.63;;;3.15;;
18445;SDS011;9352;50.888;4.466;2022-09-09T02:27:34;19.63;;;3.20;;
18445;SDS011;9352;50.888;4.466;2022-09-09T02:30:03;9.95;;;2.90;;
18445;SDS011;9352;50.888;4.466;2022-09-09T02:32:32;12.57;;;3.33;;
18445;SDS011;9352;50.888;4.466;2022-09-09T02:35:03;8.35;;;2.78;;
18445;SDS011;9352;50.888;4.466;2022-09-09T02:37:35;22.88;;;3.40;;
18445;SDS011;9352;50.888;4.466;2022-09-09T02:40:04;18.40;;;2.88;;
18445;SDS011;9352;50.888;4.466;2022-09-09T02:42:34;9.45;;;2.70;;
18445;SDS011;9352;50.888;4.466;2022-09-09T02:45:07;11.68;;;3.20;;
18445;SDS011;9352;50.888;4.466;2022-09-09T02:47:35;9.07;;;2.78;;
18445;SDS011;9352;50.888;4.466;2022-09-09T02:50:07;12.25;;;3.00;;
18445;SDS011;9352;50.888;4.466;2022-09-09T02:52:42;11.13;;;3.28;;
18445;SDS011;9352;50.888;4.466;2022-09-09T02:55:20;8.45;;;3.20;;
18445;SDS011;9352;50.888;4.466;2022-09-09T02:57:54;14.43;;;3.70;;
18445;SDS011;9352;50.888;4.466;2022-09-09T03:00:25;7.20;;;3.22;;
18445;SDS011;9352;50.888;4.466;2022-09-09T03:02:53;15.25;;;3.00;;
18445;SDS011;9352;50.888;4.466;2022-09-09T03:05:20;13.25;;;3.03;;
18445;SDS011;9352;50.888;4.466;2022-09-09T03:07:47;14.00;;;3.33;;
18445;SDS011;9352;50.888;4.466;2022-09-09T03:10:15;14.23;;;3.08;;
18445;SDS011;9352;50.888;4.466;2022-09-09T03:12:42;13.98;;;3.40;;
18445;SDS011;9352;50.888;4.466;2022-09-09T03:15:09;11.23;;;3.10;;
18445;SDS011;9352;50.888;4.466;2022-09-09T03:17:38;11.63;;;2.90;;
18445;SDS011;9352;50.888;4.466;2022-09-09T03:20:05;14.85;;;3.30;;
18445;SDS011;9352;50.888;4.466;2022-09-09T03:22:33;15.65;;;3.00;;
18445;SDS011;9352;50.888;4.466;2022-09-09T03:25:00;20.38;;;4.78;;
18445;SDS011;9352;50.888;4.466;2022-09-09T03:27:27;19.15;;;3.38;;
18445;SDS011;9352;50.888;4.466;2022-09-09T03:29:55;17.65;;;3.25;;
18445;SDS011;9352;50.888;4.466;2022-09-09T03:32:22;11.43;;;3.42;;
18445;SDS011;9352;50.888;4.466;2022-09-09T03:34:52;12.57;;;3.03;;
18445;SDS011;9352;50.888;4.466;2022-09-09T03:37:19;14.65;;;3.20;;
18445;SDS011;9352;50.888;4.466;2022-09-09T03:39:45;14.93;;;3.50;;
18445;SDS011;9352;50.888;4.466;2022-09-09T03:42:13;13.20;;;3.47;;
18445;SDS011;9352;50.888;4.466;2022-09-09T03:44:43;14.27;;;3.50;;
18445;SDS011;9352;50.888;4.466;2022-09-09T03:47:15;20.08;;;3.65;;
18445;SDS011;9352;50.888;4.466;2022-09-09T03:49:43;23.50;;;3.42;;
18445;SDS011;9352;50.888;4.466;2022-09-09T03:52:11;19.40;;;3.55;;
18445;SDS011;9352;50.888;4.466;2022-09-09T03:54:39;17.23;;;3.45;;
18445;SDS011;9352;50.888;4.466;2022-09-09T03:57:07;21.00;;;3.85;;
18445;SDS011;9352;50.888;4.466;2022-09-09T03:59:34;20.70;;;3.90;;
18445;SDS011;9352;50.888;4.466;2022-09-09T04:02:01;22.58;;;3.70;;
18445;SDS011;9352;50.888;4.466;2022-09-09T04:04:28;27.27;;;3.40;;
18445;SDS011;9352;50.888;4.466;2022-09-09T04:06:55;29.40;;;4.28;;
18445;SDS011;9352;50.888;4.466;2022-09-09T04:09:23;22.38;;;3.70;;
18445;SDS011;9352;50.888;4.466;2022-09-09T04:11:50;20.90;;;3.92;;
18445;SDS011;9352;50.888;4.466;2022-09-09T04:14:18;25.08;;;4.63;;
18445;SDS011;9352;50.888;4.466;2022-09-09T04:16:44;14.70;;;3.60;;
18445;SDS011;9352;50.888;4.466;2022-09-09T04:19:12;19.63;;;3.10;;
18445;SDS011;9352;50.888;4.466;2022-09-09T04:21:39;16.17;;;3.42;;
18445;SDS011;9352;50.888;4.466;2022-09-09T04:24:07;18.38;;;3.72;;
18445;SDS011;9352;50.888;4.466;2022-09-09T04:26:36;19.45;;;3.25;;
18445;SDS011;9352;50.888;4.466;2022-09-09T04:29:03;20.50;;;3.67;;
18445;SDS011;9352;50.888;4.466;2022-09-09T04:31:33;17.13;;;3.20;;
18445;SDS011;9352;50.888;4.466;2022-09-09T04:34:00;12.40;;;2.97;;
18445;SDS011;9352;50.888;4.466;2022-09-09T04:36:30;26.38;;;3.22;;
18445;SDS011;9352;50.888;4.466;2022-09-09T04:38:57;15.20;;;3.90;;
18445;SDS011;9352;50.888;4.466;2022-09-09T04:41:24;17.17;;;3.40;;
18445;SDS011;9352;50.888;4.466;2022-09-09T04:43:53;13.02;;;3.70;;
18445;SDS011;9352;50.888;4.466;2022-09-09T04:46:20;15.95;;;3.05;;
18445;SDS011;9352;50.888;4.466;2022-09-09T04:48:48;19.52;;;3.85;;
18445;SDS011;9352;50.888;4.466;2022-09-09T04:51:16;16.73;;;3.50;;
18445;SDS011;9352;50.888;4.466;2022-09-09T04:53:43;13.55;;;3.33;;
18445;SDS011;9352;50.888;4.466;2022-09-09T04:56:10;16.48;;;3.40;;
18445;SDS011;9352;50.888;4.466;2022-09-09T04:58:39;11.93;;;3.45;;
18445;SDS011;9352;50.888;4.466;2022-09-09T05:01:10;21.52;;;3.80;;
18445;SDS011;9352;50.888;4.466;2022-09-09T05:03:38;14.00;;;3.42;;
18445;SDS011;9352;50.888;4.466;2022-09-09T05:06:05;10.20;;;3.40;;
18445;SDS011;9352;50.888;4.466;2022-09-09T05:08:35;13.13;;;3.28;;
18445;SDS011;9352;50.888;4.466;2022-09-09T05:11:02;13.13;;;3.15;;
18445;SDS011;9352;50.888;4.466;2022-09-09T05:13:30;12.10;;;3.28;;
18445;SDS011;9352;50.888;4.466;2022-09-09T05:15:57;17.20;;;3.83;;
18445;SDS011;9352;50.888;4.466;2022-09-09T05:18:26;16.15;;;3.50;;
18445;SDS011;9352;50.888;4.466;2022-09-09T05:20:56;19.85;;;3.80;;
18445;SDS011;9352;50.888;4.466;2022-09-09T05:23:25;14.50;;;3.25;;
18445;SDS011;9352;50.888;4.466;2022-09-09T05:25:56;10.35;;;3.65;;
18445;SDS011;9352;50.888;4.466;2022-09-09T05:28:23;21.02;;;3.63;;
18445;SDS011;9352;50.888;4.466;2022-09-09T05:30:57;16.35;;;3.60;;
18445;SDS011;9352;50.888;4.466;2022-09-09T05:33:27;22.65;;;3.70;;
18445;SDS011;9352;50.888;4.466;2022-09-09T05:35:57;16.88;;;3.47;;
18445;SDS011;9352;50.888;4.466;2022-09-09T05:38:25;12.52;;;4.03;;
18445;SDS011;9352;50.888;4.466;2022-09-09T05:40:52;14.68;;;3.50;;
18445;SDS011;9352;50.888;4.466;2022-09-09T05:43:19;13.85;;;3.80;;
18445;SDS011;9352;50.888;4.466;2022-09-09T05:45:46;15.18;;;3.35;;
18445;SDS011;9352;50.888;4.466;2022-09-09T05:48:13;19.38;;;3.70;;
18445;SDS011;9352;50.888;4.466;2022-09-09T05:50:42;15.07;;;3.00;;
18445;SDS011;9352;50.888;4.466;2022-09-09T05:53:10;18.67;;;3.90;;
18445;SDS011;9352;50.888;4.466;2022-09-09T05:55:37;16.58;;;3.30;;
18445;SDS011;9352;50.888;4.466;2022-09-09T05:58:03;20.85;;;3.42;;
18445;SDS011;9352;50.888;4.466;2022-09-09T06:00:30;13.90;;;3.33;;
18445;SDS011;9352;50.888;4.466;2022-09-09T06:02:57;13.55;;;3.03;;
18445;SDS011;9352;50.888;4.466;2022-09-09T06:05:25;17.15;;;3.75;;
18445;SDS011;9352;50.888;4.466;2022-09-09T06:07:54;26.38;;;3.50;;
18445;SDS011;9352;50.888;4.466;2022-09-09T06:10:21;10.85;;;2.97;;
18445;SDS011;9352;50.888;4.466;2022-09-09T06:12:48;26.55;;;3.40;;
18445;SDS011;9352;50.888;4.466;2022-09-09T06:15:18;14.63;;;3.65;;
18445;SDS011;9352;50.888;4.466;2022-09-09T06:17:45;13.55;;;3.22;;
18445;SDS011;9352;50.888;4.466;2022-09-09T06:20:12;18.20;;;3.10;;
18445;SDS011;9352;50.888;4.466;2022-09-09T06:22:39;22.00;;;3.75;;
18445;SDS011;9352;50.888;4.466;2022-09-09T06:25:08;11.13;;;2.63;;
18445;SDS011;9352;50.888;4.466;2022-09-09T06:27:35;19.27;;;3.20;;
18445;SDS011;9352;50.888;4.466;2022-09-09T06:30:03;18.02;;;2.60;;
18445;SDS011;9352;50.888;4.466;2022-09-09T06:32:30;13.70;;;3.00;;
18445;SDS011;9352;50.888;4.466;2022-09-09T06:35:00;16.73;;;4.18;;
18445;SDS011;9352;50.888;4.466;2022-09-09T06:37:27;12.18;;;2.60;;
18445;SDS011;9352;50.888;4.466;2022-09-09T06:39:54;11.80;;;2.33;;
18445;SDS011;9352;50.888;4.466;2022-09-09T06:42:22;13.07;;;2.90;;
18445;SDS011;9352;50.888;4.466;2022-09-09T06:44:49;16.90;;;2.95;;
18445;SDS011;9352;50.888;4.466;2022-09-09T06:47:17;10.48;;;2.88;;
18445;SDS011;9352;50.888;4.466;2022-09-09T06:49:44;12.25;;;2.67;;
18445;SDS011;9352;50.888;4.466;2022-09-09T06:52:11;12.55;;;2.75;;
18445;SDS011;9352;50.888;4.466;2022-09-09T06:54:38;16.92;;;3.50;;
18445;SDS011;9352;50.888;4.466;2022-09-09T06:57:04;14.48;;;2.80;;
18445;SDS011;9352;50.888;4.466;2022-09-09T06:59:34;14.93;;;2.80;;
18445;SDS011;9352;50.888;4.466;2022-09-09T07:02:01;11.02;;;2.80;;
18445;SDS011;9352;50.888;4.466;2022-09-09T07:04:28;12.85;;;2.63;;
18445;SDS011;9352;50.888;4.466;2022-09-09T07:06:55;15.82;;;3.10;;
18445;SDS011;9352;50.888;4.466;2022-09-09T07:09:21;14.45;;;2.63;;
18445;SDS011;9352;50.888;4.466;2022-09-09T07:11:49;13.80;;;2.75;;
18445;SDS011;9352;50.888;4.466;2022-09-09T07:14:17;13.65;;;2.53;;
18445;SDS011;9352;50.888;4.466;2022-09-09T07:16:47;9.02;;;2.15;;
18445;SDS011;9352;50.888;4.466;2022-09-09T07:19:14;12.57;;;2.50;;
18445;SDS011;9352;50.888;4.466;2022-09-09T07:21:41;16.33;;;2.70;;
18445;SDS011;9352;50.888;4.466;2022-09-09T07:24:09;10.55;;;2.40;;
18445;SDS011;9352;50.888;4.466;2022-09-09T07:26:36;8.40;;;2.40;;
18445;SDS011;9352;50.888;4.466;2022-09-09T07:29:04;9.13;;;2.28;;
18445;SDS011;9352;50.888;4.466;2022-09-09T07:31:32;10.68;;;2.40;;
18445;SDS011;9352;50.888;4.466;2022-09-09T07:34:03;12.68;;;2.30;;
18445;SDS011;9352;50.888;4.466;2022-09-09T07:36:31;14.73;;;2.45;;
18445;SDS011;9352;50.888;4.466;2022-09-09T07:39:00;10.77;;;2.50;;
18445;SDS011;9352;50.888;4.466;2022-09-09T07:41:29;15.00;;;2.97;;
18445;SDS011;9352;50.888;4.466;2022-09-09T07:43:59;13.13;;;2.58;;
18445;SDS011;9352;50.888;4.466;2022-09-09T07:46:29;11.18;;;2.40;;
18445;SDS011;9352;50.888;4.466;2022-09-09T07:48:57;11.27;;;2.55;;
18445;SDS011;9352;50.888;4.466;2022-09-09T07:51:25;8.40;;;2.10;;
18445;SDS011;9352;50.888;4.466;2022-09-09T07:53:55;10.80;;;2.67;;
18445;SDS011;9352;50.888;4.466;2022-09-09T07:56:24;10.27;;;2.65;;
18445;SDS011;9352;50.888;4.466;2022-09-09T07:58:52;7.32;;;2.17;;
18445;SDS011;9352;50.888;4.466;2022-09-09T08:01:21;11.05;;;2.42;;
18445;SDS011;9352;50.888;4.466;2022-09-09T08:03:52;8.65;;;2.30;;
18445;SDS011;9352;50.888;4.466;2022-09-09T08:06:25;10.32;;;2.30;;
18445;SDS011;9352;50.888;4.466;2022-09-09T08:08:53;12.02;;;2.20;;
18445;SDS011;9352;50.888;4.466;2022-09-09T08:11:22;6.07;;;2.03;;
18445;SDS011;9352;50.888;4.466;2022-09-09T08:13:50;9.15;;;2.03;;
18445;SDS011;9352;50.888;4.466;2022-09-09T08:16:18;10.07;;;2.50;;
18445;SDS011;9352;50.888;4.466;2022-09-09T08:18:47;18.60;;;3.30;;
18445;SDS011;9352;50.888;4.466;2022-09-09T08:21:16;10.48;;;2.60;;
18445;SDS011;9352;50.888;4.466;2022-09-09T08:23:45;15.90;;;2.25;;
18445;SDS011;9352;50.888;4.466;2022-09-09T08:26:14;11.52;;;2.95;;
18445;SDS011;9352;50.888;4.466;2022-09-09T08:28:42;16.20;;;2.67;;
18445;SDS011;9352;50.888;4.466;2022-09-09T08:31:10;15.35;;;3.00;;
18445;SDS011;9352;50.888;4.466;2022-09-09T08:33:39;13.73;;;2.78;;
18445;SDS011;9352;50.888;4.466;2022-09-09T08:36:08;9.07;;;2.50;;
18445;SDS011;9352;50.888;4.466;2022-09-09T08:38:36;13.15;;;2.60;;
18445;SDS011;9352;50.888;4.466;2022-09-09T08:41:07;10.23;;;2.35;;
18445;SDS011;9352;50.888;4.466;2022-09-09T08:43:43;12.02;;;3.20;;
18445;SDS011;9352;50.888;4.466;2022-09-09T08:46:14;12.93;;;2.70;;
18445;SDS011;9352;50.888;4.466;2022-09-09T08:48:52;12.40;;;2.67;;
18445;SDS011;9352;50.888;4.466;2022-09-09T08:51:24;13.43;;;2.50;;
18445;SDS011;9352;50.888;4.466;2022-09-09T08:53:53;11.45;;;2.67;;
18445;SDS011;9352;50.888;4.466;2022-09-09T08:56:24;11.75;;;2.28;;
18445;SDS011;9352;50.888;4.466;2022-09-09T08:58:54;12.38;;;2.50;;
18445;SDS011;9352;50.888;4.466;2022-09-09T09:04:25;10.27;;;2.65;;
18445;SDS011;9352;50.888;4.466;2022-09-09T09:07:07;10.00;;;2.20;;
18445;SDS011;9352;50.888;4.466;2022-09-09T09:09:42;6.97;;;2.22;;
18445;SDS011;9352;50.888;4.466;2022-09-09T09:12:20;8.27;;;2.92;;
18445;SDS011;9352;50.888;4.466;2022-09-09T09:14:49;9.25;;;2.50;;
18445;SDS011;9352;50.888;4.466;2022-09-09T09:17:16;9.75;;;2.50;;
18445;SDS011;9352;50.888;4.466;2022-09-09T09:19:45;13.75;;;2.60;;
18445;SDS011;9352;50.888;4.466;2022-09-09T09:22:16;10.25;;;2.45;;
18445;SDS011;9352;50.888;4.466;2022-09-09T09:24:49;7.57;;;2.20;;
18445;SDS011;9352;50.888;4.466;2022-09-09T09:27:27;9.60;;;2.45;;
18445;SDS011;9352;50.888;4.466;2022-09-09T09:29:58;14.82;;;2.60;;
18445;SDS011;9352;50.888;4.466;2022-09-09T09:32:28;14.02;;;2.67;;
18445;SDS011;9352;50.888;4.466;2022-09-09T09:34:59;9.93;;;2.80;;
18445;SDS011;9352;50.888;4.466;2022-09-09T09:37:31;10.18;;;2.50;;
18445;SDS011;9352;50.888;4.466;2022-09-09T09:40:08;8.98;;;3.28;;
18445;SDS011;9352;50.888;4.466;2022-09-09T09:42:37;13.48;;;2.88;;
18445;SDS011;9352;50.888;4.466;2022-09-09T09:45:14;16.85;;;2.53;;
18445;SDS011;9352;50.888;4.466;2022-09-09T09:47:57;13.07;;;2.78;;
18445;SDS011;9352;50.888;4.466;2022-09-09T09:50:24;9.27;;;2.42;;
18445;SDS011;9352;50.888;4.466;2022-09-09T09:52:54;12.63;;;2.85;;
18445;SDS011;9352;50.888;4.466;2022-09-09T09:55:22;9.75;;;2.85;;
18445;SDS011;9352;50.888;4.466;2022-09-09T09:57:52;7.85;;;2.50;;
18445;SDS011;9352;50.888;4.466;2022-09-09T10:00:19;12.70;;;4.20;;
18445;SDS011;9352;50.888;4.466;2022-09-09T10:02:48;12.07;;;2.50;;
18445;SDS011;9352;50.888;4.466;2022-09-09T10:05:18;6.03;;;2.20;;
18445;SDS011;9352;50.888;4.466;2022-09-09T10:07:46;12.48;;;2.63;;
18445;SDS011;9352;50.888;4.466;2022-09-09T10:10:28;12.30;;;2.30;;
18445;SDS011;9352;50.888;4.466;2022-09-09T10:13:06;12.18;;;2.42;;
18445;SDS011;9352;50.888;4.466;2022-09-09T10:15:39;12.68;;;2.35;;
18445;SDS011;9352;50.888;4.466;2022-09-09T10:18:17;7.05;;;2.17;;
18445;SDS011;9352;50.888;4.466;2022-09-09T10:21:04;7.57;;;2.22;;
18445;SDS011;9352;50.888;4.466;2022-09-09T10:23:47;7.32;;;2.65;;
18445;SDS011;9352;50.888;4.466;2022-09-09T10:26:29;8.07;;;2.50;;
18445;SDS011;9352;50.888;4.466;2022-09-09T10:32:06;6.63;;;2.65;;
18445;SDS011;9352;50.888;4.466;2022-09-09T10:34:58;7.32;;;2.63;;
18445;SDS011;9352;50.888;4.466;2022-09-09T10:37:35;7.93;;;2.33;;
18445;SDS011;9352;50.888;4.466;2022-09-09T10:40:19;7.60;;;2.25;;
18445;SDS011;9352;50.888;4.466;2022-09-09T10:42:55;9.77;;;2.17;;
18445;SDS011;9352;50.888;4.466;2022-09-09T10:45:34;5.18;;;2.25;;
18445;SDS011;9352;50.888;4.466;2022-09-09T10:48:13;8.30;;;2.25;;
18445;SDS011;9352;50.888;4.466;2022-09-09T10:50:53;8.32;;;2.28;;
18445;SDS011;9352;50.888;4.466;2022-09-09T10:53:26;8.93;;;2.30;;
18445;SDS011;9352;50.888;4.466;2022-09-09T10:56:10;6.95;;;2.33;;
18445;SDS011;9352;50.888;4.466;2022-09-09T10:58:40;5.20;;;1.80;;
18445;SDS011;9352;50.888;4.466;2022-09-09T11:01:15;10.57;;;2.70;;
18445;SDS011;9352;50.888;4.466;2022-09-09T11:03:48;8.40;;;2.20;;
18445;SDS011;9352;50.888;4.466;2022-09-09T11:06:19;8.30;;;2.15;;
18445;SDS011;9352;50.888;4.466;2022-09-09T11:08:49;9.98;;;2.40;;
18445;SDS011;9352;50.888;4.466;2022-09-09T11:11:18;9.40;;;2.30;;
18445;SDS011;9352;50.888;4.466;2022-09-09T11:13:53;7.90;;;2.20;;
18445;SDS011;9352;50.888;4.466;2022-09-09T11:16:25;15.75;;;2.30;;
18445;SDS011;9352;50.888;4.466;2022-09-09T11:18:56;5.22;;;2.35;;
18445;SDS011;9352;50.888;4.466;2022-09-09T11:21:28;6.65;;;1.90;;
18445;SDS011;9352;50.888;4.466;2022-09-09T11:23:59;5.55;;;2.13;;
18445;SDS011;9352;50.888;4.466;2022-09-09T11:26:30;8.63;;;1.77;;
18445;SDS011;9352;50.888;4.466;2022-09-09T11:29:11;7.38;;;2.13;;
18445;SDS011;9352;50.888;4.466;2022-09-09T11:32:03;9.43;;;1.52;;
18445;SDS011;9352;50.888;4.466;2022-09-09T11:34:41;4.32;;;1.90;;
18445;SDS011;9352;50.888;4.466;2022-09-09T11:37:23;7.35;;;2.05;;
18445;SDS011;9352;50.888;4.466;2022-09-09T11:40:09;8.95;;;2.05;;
18445;SDS011;9352;50.888;4.466;2022-09-09T11:42:44;8.18;;;2.05;;
18445;SDS011;9352;50.888;4.466;2022-09-09T11:45:20;7.40;;;1.67;;
18445;SDS011;9352;50.888;4.466;2022-09-09T11:47:53;6.90;;;1.77;;
18445;SDS011;9352;50.888;4.466;2022-09-09T11:50:27;6.30;;;1.75;;
18445;SDS011;9352;50.888;4.466;2022-09-09T11:55:47;8.60;;;2.20;;
18445;SDS011;9352;50.888;4.466;2022-09-09T11:58:26;7.00;;;1.92;;
18445;SDS011;9352;50.888;4.466;2022-09-09T12:00:57;9.80;;;1.90;;
18445;SDS011;9352;50.888;4.466;2022-09-09T12:03:40;4.28;;;1.70;;
18445;SDS011;9352;50.888;4.466;2022-09-09T12:06:11;7.60;;;1.98;;
18445;SDS011;9352;50.888;4.466;2022-09-09T12:08:43;7.68;;;1.90;;
18445;SDS011;9352;50.888;4.466;2022-09-09T12:11:23;5.30;;;1.50;;
18445;SDS011;9352;50.888;4.466;2022-09-09T12:13:54;4.85;;;1.70;;
18445;SDS011;9352;50.888;4.466;2022-09-09T12:16:29;9.63;;;2.03;;
18445;SDS011;9352;50.888;4.466;2022-09-09T12:19:13;5.72;;;2.25;;
18445;SDS011;9352;50.888;4.466;2022-09-09T12:21:44;4.35;;;1.70;;
18445;SDS011;9352;50.888;4.466;2022-09-09T12:24:19;7.68;;;1.90;;
18445;SDS011;9352;50.888;4.466;2022-09-09T12:26:54;6.60;;;1.67;;
18445;SDS011;9352;50.888;4.466;2022-09-09T12:29:30;6.82;;;1.90;;
18445;SDS011;9352;50.888;4.466;2022-09-09T12:32:06;8.98;;;2.55;;
18445;SDS011;9352;50.888;4.466;2022-09-09T12:34:40;10.60;;;1.80;;
18445;SDS011;9352;50.888;4.466;2022-09-09T12:37:14;5.05;;;1.88;;
18445;SDS011;9352;50.888;4.466;2022-09-09T12:39:45;12.80;;;2.00;;
18445;SDS011;9352;50.888;4.466;2022-09-09T12:42:17;9.00;;;1.83;;
18445;SDS011;9352;50.888;4.466;2022-09-09T12:44:52;4.38;;;1.90;;
18445;SDS011;9352;50.888;4.466;2022-09-09T12:47:20;7.13;;;2.10;;
18445;SDS011;9352;50.888;4.466;2022-09-09T12:49:52;6.78;;;1.83;;
18445;SDS011;9352;50.888;4.466;2022-09-09T12:52:23;10.27;;;2.47;;
18445;SDS011;9352;50.888;4.466;2022-09-09T12:54:55;5.47;;;1.77;;
18445;SDS011;9352;50.888;4.466;2022-09-09T12:57:23;2.95;;;1.25;;
18445;SDS011;9352;50.888;4.466;2022-09-09T12:59:52;7.43;;;1.85;;
18445;SDS011;9352;50.888;4.466;2022-09-09T13:02:31;4.93;;;1.75;;
18445;SDS011;9352;50.888;4.466;2022-09-09T13:05:08;6.18;;;1.48;;
18445;SDS011;9352;50.888;4.466;2022-09-09T13:07:43;5.40;;;1.73;;
18445;SDS011;9352;50.888;4.466;2022-09-09T13:10:11;4.43;;;1.35;;
18445;SDS011;9352;50.888;4.466;2022-09-09T13:12:38;2.65;;;1.42;;
18445;SDS011;9352;50.888;4.466;2022-09-09T13:15:10;2.90;;;1.40;;
18445;SDS011;9352;50.888;4.466;2022-09-09T13:17:49;5.10;;;1.60;;
18445;SDS011;9352;50.888;4.466;2022-09-09T13:20:20;12.35;;;1.70;;
18445;SDS011;9352;50.888;4.466;2022-09-09T13:22:47;8.25;;;1.60;;
18445;SDS011;9352;50.888;4.466;2022-09-09T13:25:19;20.73;;;2.20;;
18445;SDS011;9352;50.888;4.466;2022-09-09T13:27:54;7.18;;;1.80;;
18445;SDS011;9352;50.888;4.466;2022-09-09T13:30:25;6.90;;;1.77;;
18445;SDS011;9352;50.888;4.466;2022-09-09T13:32:59;4.68;;;1.70;;
18445;SDS011;9352;50.888;4.466;2022-09-09T13:35:33;8.40;;;1.92;;
18445;SDS011;9352;50.888;4.466;2022-09-09T13:38:06;4.85;;;1.60;;
18445;SDS011;9352;50.888;4.466;2022-09-09T13:40:34;3.50;;;1.45;;
18445;SDS011;9352;50.888;4.466;2022-09-09T13:43:02;10.52;;;1.80;;
18445;SDS011;9352;50.888;4.466;2022-09-09T13:45:30;2.40;;;1.30;;
18445;SDS011;9352;50.888;4.466;2022-09-09T13:47:59;6.40;;;1.73;;
18445;SDS011;9352;50.888;4.466;2022-09-09T13:50:36;4.20;;;1.48;;
18445;SDS011;9352;50.888;4.466;2022-09-09T13:53:03;4.25;;;1.55;;
18445;SDS011;9352;50.888;4.466;2022-09-09T13:55:30;2.72;;;1.20;;
18445;SDS011;9352;50.888;4.466;2022-09-09T13:57:58;5.28;;;1.63;;
18445;SDS011;9352;50.888;4.466;2022-09-09T14:00:28;4.13;;;1.58;;
18445;SDS011;9352;50.888;4.466;2022-09-09T14:02:56;6.40;;;1.80;;
18445;SDS011;9352;50.888;4.466;2022-09-09T14:05:23;6.00;;;1.63;;
18445;SDS011;9352;50.888;4.466;2022-09-09T14:07:51;2.83;;;1.50;;
18445;SDS011;9352;50.888;4.466;2022-09-09T14:10:18;2.55;;;1.35;;
18445;SDS011;9352;50.888;4.466;2022-09-09T14:12:45;4.50;;;1.60;;
18445;SDS011;9352;50.888;4.466;2022-09-09T14:15:12;4.03;;;1.50;;
18445;SDS011;9352;50.888;4.466;2022-09-09T14:17:40;3.25;;;1.65;;
18445;SDS011;9352;50.888;4.466;2022-09-09T14:20:08;5.72;;;1.92;;
18445;SDS011;9352;50.888;4.466;2022-09-09T14:22:36;7.57;;;1.60;;
18445;SDS011;9352;50.888;4.466;2022-09-09T14:25:06;2.95;;;1.60;;
18445;SDS011;9352;50.888;4.466;2022-09-09T14:27:33;7.28;;;1.88;;
18445;SDS011;9352;50.888;4.466;2022-09-09T14:30:00;5.43;;;1.55;;
18445;SDS011;9352;50.888;4.466;2022-09-09T14:32:27;4.78;;;1.90;;
18445;SDS011;9352;50.888;4.466;2022-09-09T14:34:54;8.02;;;1.70;;
18445;SDS011;9352;50.888;4.466;2022-09-09T14:37:21;2.08;;;1.60;;
18445;SDS011;9352;50.888;4.466;2022-09-09T14:39:49;3.88;;;1.63;;
18445;SDS011;9352;50.888;4.466;2022-09-09T14:42:18;4.50;;;1.70;;
18445;SDS011;9352;50.888;4.466;2022-09-09T14:44:45;6.00;;;1.83;;
18445;SDS011;9352;50.888;4.466;2022-09-09T14:47:12;3.90;;;1.67;;
18445;SDS011;9352;50.888;4.466;2022-09-09T14:49:39;7.53;;;1.80;;
18445;SDS011;9352;50.888;4.466;2022-09-09T14:52:06;4.40;;;1.67;;
18445;SDS011;9352;50.888;4.466;2022-09-09T14:54:34;4.03;;;1.40;;
18445;SDS011;9352;50.888;4.466;2022-09-09T14:57:01;33.30;;;2.17;;
18445;SDS011;9352;50.888;4.466;2022-09-09T14:59:29;6.50;;;1.70;;
18445;SDS011;9352;50.888;4.466;2022-09-09T15:01:56;4.47;;;1.70;;
18445;SDS011;9352;50.888;4.466;2022-09-09T15:04:23;2.85;;;1.55;;
18445;SDS011;9352;50.888;4.466;2022-09-09T15:06:50;4.78;;;1.33;;
18445;SDS011;9352;50.888;4.466;2022-09-09T15:09:18;4.70;;;1.58;;
18445;SDS011;9352;50.888;4.466;2022-09-09T15:11:45;2.97;;;1.70;;
18445;SDS011;9352;50.888;4.466;2022-09-09T15:14:11;4.25;;;1.40;;
18445;SDS011;9352;50.888;4.466;2022-09-09T15:16:40;2.58;;;1.35;;
18445;SDS011;9352;50.888;4.466;2022-09-09T15:19:07;3.33;;;1.58;;
18445;SDS011;9352;50.888;4.466;2022-09-09T15:21:35;4.75;;;1.65;;
18445;SDS011;9352;50.888;4.466;2022-09-09T15:24:03;3.97;;;1.88;;
18445;SDS011;9352;50.888;4.466;2022-09-09T15:26:32;2.28;;;1.60;;